sensor_id;sensor_type;location;lat;lon;timestamp;temperature;humidity
14014;DHT22;49110;52.584;13.408;2023-07-16T00:00:28;25.00;99.90
14014;DHT22;49110;52.584;13.408;2023-07-16T00:01:29;25.10;99.90
14014;DHT22;49110;52.584;13.408;2023-07-16T00:02:29;25.00;99.90
14014;DHT22;49110;52.584;13.408;2023-07-16T00:03:30;25.00;99.90
14014;DHT22;49110;52.584;13.408;2023-07-16T00:04:31;25.00;99.90
14014;DHT22;49110;52.584;13.408;2023-07-16T00:05:32;25.00;99.90
14014;DHT22;49110;52.584;13.408;2023-07-16T00:06:32;25.00;99.90
14014;DHT22;49110;52.584;13.408;2023-07-16T00:07:32;25.00;99.90
14014;DHT22;49110;52.584;13.408;2023-07-16T00:08:33;24.90;99.90
14014;DHT22;49110;52.584;13.408;2023-07-16T00:09:33;25.00;99.90
14014;DHT22;49110;52.584;13.408;2023-07-16T00:10:37;24.90;99.90
14014;DHT22;49110;52.584;13.408;2023-07-16T00:11:37;24.90;99.90
14014;DHT22;49110;52.584;13.408;2023-07-16T00:12:38;24.90;99.90
14014;DHT22;49110;52.584;13.408;2023-07-16T00:13:39;24.80;99.90
14014;DHT22;49110;52.584;13.408;2023-07-16T00:14:41;24.90;99.90
14014;DHT22;49110;52.584;13.408;2023-07-16T00:15:42;24.90;99.90
14014;DHT22;49110;52.584;13.408;2023-07-16T00:16:42;24.90;99.90
14014;DHT22;49110;52.584;13.408;2023-07-16T00:17:43;24.90;99.90
14014;DHT22;49110;52.584;13.408;2023-07-16T00:18:44;24.80;99.50
14014;DHT22;49110;52.584;13.408;2023-07-16T00:19:45;24.70;99.90
14014;DHT22;49110;52.584;13.408;2023-07-16T00:20:45;24.60;99.90
14014;DHT22;49110;52.584;13.408;2023-07-16T00:21:46;24.50;99.90
14014;DHT22;49110;52.584;13.408;2023-07-16T00:22:47;24.50;99.90
14014;DHT22;49110;52.584;13.408;2023-07-16T00:23:47;24.30;99.90
14014;DHT22;49110;52.584;13.408;2023-07-16T00:24:48;24.20;99.90
14014;DHT22;49110;52.584;13.408;2023-07-16T00:25:48;24.30;99.90
14014;DHT22;49110;52.584;13.408;2023-07-16T00:26:48;24.30;99.90
14014;DHT22;49110;52.584;13.408;2023-07-16T00:27:49;24.20;99.90
14014;DHT22;49110;52.584;13.408;2023-07-16T00:28:49;24.20;99.90
14014;DHT22;49110;52.584;13.408;2023-07-16T00:29:50;24.20;99.90
14014;DHT22;49110;52.584;13.408;2023-07-16T00:30:50;24.30;99.90
14014;DHT22;49110;52.584;13.408;2023-07-16T00:31:51;24.30;99.90
14014;DHT22;49110;52.584;13.408;2023-07-16T00:32:51;24.40;99.90
14014;DHT22;49110;52.584;13.408;2023-07-16T00:33:52;24.50;99.90
14014;DHT22;49110;52.584;13.408;2023-07-16T00:34:52;24.60;99.90
14014;DHT22;49110;52.584;13.408;2023-07-16T00:35:53;24.60;99.90
14014;DHT22;49110;52.584;13.408;2023-07-16T00:36:53;24.60;99.90
14014;DHT22;49110;52.584;13.408;2023-07-16T00:37:53;24.60;99.90
14014;DHT22;49110;52.584;13.408;2023-07-16T00:38:54;24.70;99.90
14014;DHT22;49110;52.584;13.408;2023-07-16T00:39:54;24.70;99.90
14014;DHT22;49110;52.584;13.408;2023-07-16T00:40:55;24.60;99.90
14014;DHT22;49110;52.584;13.408;2023-07-16T00:41:56;24.60;99.90
14014;DHT22;49110;52.584;13.408;2023-07-16T00:42:56;24.60;99.90
14014;DHT22;49110;52.584;13.408;2023-07-16T00:43:57;24.60;99.90
14014;DHT22;49110;52.584;13.408;2023-07-16T00:44:57;24.70;99.90
14014;DHT22;49110;52.584;13.408;2023-07-16T00:45:58;24.70;99.90
14014;DHT22;49110;52.584;13.408;2023-07-16T00:46:58;24.70;99.90
14014;DHT22;49110;52.584;13.408;2023-07-16T00:47:59;24.70;99.90
14014;DHT22;49110;52.584;13.408;2023-07-16T00:49:01;24.70;99.90
14014;DHT22;49110;52.584;13.408;2023-07-16T00:50:01;24.70;99.90
14014;DHT22;49110;52.584;13.408;2023-07-16T00:51:02;24.60;99.90
14014;DHT22;49110;52.584;13.408;2023-07-16T00:52:05;24.70;99.90
14014;DHT22;49110;52.584;13.408;2023-07-16T00:53:08;24.70;99.90
14014;DHT22;49110;52.584;13.408;2023-07-16T00:54:09;24.70;99.90
14014;DHT22;49110;52.584;13.408;2023-07-16T00:55:10;24.70;99.90
14014;DHT22;49110;52.584;13.408;2023-07-16T00:56:11;24.70;99.90
14014;DHT22;49110;52.584;13.408;2023-07-16T00:57:14;24.60;99.90
14014;DHT22;49110;52.584;13.408;2023-07-16T00:58:14;24.70;99.90
14014;DHT22;49110;52.584;13.408;2023-07-16T00:59:15;24.60;99.90
14014;DHT22;49110;52.584;13.408;2023-07-16T01:00:16;24.60;99.90
14014;DHT22;49110;52.584;13.408;2023-07-16T01:01:16;24.50;99.90
14014;DHT22;49110;52.584;13.408;2023-07-16T01:02:17;24.50;99.90
14014;DHT22;49110;52.584;13.408;2023-07-16T01:03:18;24.50;99.90
14014;DHT22;49110;52.584;13.408;2023-07-16T01:04:18;24.50;99.90
14014;DHT22;49110;52.584;13.408;2023-07-16T01:05:19;24.60;99.90
14014;DHT22;49110;52.584;13.408;2023-07-16T01:06:36;24.60;99.90
14014;DHT22;49110;52.584;13.408;2023-07-16T01:07:42;24.60;99.90
14014;DHT22;49110;52.584;13.408;2023-07-16T01:08:52;24.60;99.90
14014;DHT22;49110;52.584;13.408;2023-07-16T01:09:56;24.60;99.90
14014;DHT22;49110;52.584;13.408;2023-07-16T01:10:57;24.60;99.80
14014;DHT22;49110;52.584;13.408;2023-07-16T01:11:58;24.70;99.90
14014;DHT22;49110;52.584;13.408;2023-07-16T01:13:00;24.70;99.90
14014;DHT22;49110;52.584;13.408;2023-07-16T01:14:02;24.70;99.80
14014;DHT22;49110;52.584;13.408;2023-07-16T01:15:03;24.70;99.90
14014;DHT22;49110;52.584;13.408;2023-07-16T01:16:04;24.70;99.90
14014;DHT22;49110;52.584;13.408;2023-07-16T01:17:05;24.60;99.90
14014;DHT22;49110;52.584;13.408;2023-07-16T01:18:06;24.70;99.90
14014;DHT22;49110;52.584;13.408;2023-07-16T01:19:07;24.60;99.90
14014;DHT22;49110;52.584;13.408;2023-07-16T01:20:08;24.70;99.50
14014;DHT22;49110;52.584;13.408;2023-07-16T01:21:08;24.70;99.30
14014;DHT22;49110;52.584;13.408;2023-07-16T01:22:27;24.70;99.20
14014;DHT22;49110;52.584;13.408;2023-07-16T01:29:32;24.80;99.30
14014;DHT22;49110;52.584;13.408;2023-07-16T01:30:34;24.80;99.50
14014;DHT22;49110;52.584;13.408;2023-07-16T01:31:38;24.80;99.10
14014;DHT22;49110;52.584;13.408;2023-07-16T01:32:40;24.80;99.30
14014;DHT22;49110;52.584;13.408;2023-07-16T01:33:42;24.80;99.70
14014;DHT22;49110;52.584;13.408;2023-07-16T01:34:43;24.80;99.70
14014;DHT22;49110;52.584;13.408;2023-07-16T01:35:45;24.70;99.70
14014;DHT22;49110;52.584;13.408;2023-07-16T01:36:46;24.80;99.70
14014;DHT22;49110;52.584;13.408;2023-07-16T01:37:48;24.80;99.70
14014;DHT22;49110;52.584;13.408;2023-07-16T01:38:48;24.80;99.50
14014;DHT22;49110;52.584;13.408;2023-07-16T01:39:49;24.80;99.80
14014;DHT22;49110;52.584;13.408;2023-07-16T01:40:49;24.70;99.60
14014;DHT22;49110;52.584;13.408;2023-07-16T01:41:50;24.70;99.40
14014;DHT22;49110;52.584;13.408;2023-07-16T01:42:50;24.70;99.40
14014;DHT22;49110;52.584;13.408;2023-07-16T01:43:51;24.70;99.40
14014;DHT22;49110;52.584;13.408;2023-07-16T01:44:51;24.70;99.30
14014;DHT22;49110;52.584;13.408;2023-07-16T01:45:52;24.70;99.30
14014;DHT22;49110;52.584;13.408;2023-07-16T01:47:07;24.70;99.30
14014;DHT22;49110;52.584;13.408;2023-07-16T01:48:36;24.70;99.10
14014;DHT22;49110;52.584;13.408;2023-07-16T01:49:37;24.70;99.30
14014;DHT22;49110;52.584;13.408;2023-07-16T01:50:38;24.70;99.20
14014;DHT22;49110;52.584;13.408;2023-07-16T01:51:38;24.70;99.00
14014;DHT22;49110;52.584;13.408;2023-07-16T01:52:39;24.80;98.90
14014;DHT22;49110;52.584;13.408;2023-07-16T01:53:42;24.80;98.80
14014;DHT22;49110;52.584;13.408;2023-07-16T01:54:43;24.70;98.70
14014;DHT22;49110;52.584;13.408;2023-07-16T01:55:43;24.70;98.70
14014;DHT22;49110;52.584;13.408;2023-07-16T01:56:43;24.80;98.70
14014;DHT22;49110;52.584;13.408;2023-07-16T01:57:44;24.80;98.60
14014;DHT22;49110;52.584;13.408;2023-07-16T01:58:44;24.80;98.50
14014;DHT22;49110;52.584;13.408;2023-07-16T01:59:45;24.80;98.40
14014;DHT22;49110;52.584;13.408;2023-07-16T02:00:46;24.70;98.40
14014;DHT22;49110;52.584;13.408;2023-07-16T02:01:48;24.80;98.30
14014;DHT22;49110;52.584;13.408;2023-07-16T02:02:48;24.80;98.30
14014;DHT22;49110;52.584;13.408;2023-07-16T02:03:49;24.70;98.20
14014;DHT22;49110;52.584;13.408;2023-07-16T02:04:49;24.70;98.00
14014;DHT22;49110;52.584;13.408;2023-07-16T02:05:50;24.70;98.20
14014;DHT22;49110;52.584;13.408;2023-07-16T02:06:50;24.70;98.10
14014;DHT22;49110;52.584;13.408;2023-07-16T02:07:51;24.80;98.10
14014;DHT22;49110;52.584;13.408;2023-07-16T02:08:51;24.80;98.10
14014;DHT22;49110;52.584;13.408;2023-07-16T02:09:52;24.80;98.00
14014;DHT22;49110;52.584;13.408;2023-07-16T02:10:52;24.80;97.90
14014;DHT22;49110;52.584;13.408;2023-07-16T02:11:53;24.80;97.90
14014;DHT22;49110;52.584;13.408;2023-07-16T02:12:53;24.80;97.90
14014;DHT22;49110;52.584;13.408;2023-07-16T02:13:54;24.80;97.80
14014;DHT22;49110;52.584;13.408;2023-07-16T02:14:54;24.90;97.90
14014;DHT22;49110;52.584;13.408;2023-07-16T02:15:55;24.80;97.90
14014;DHT22;49110;52.584;13.408;2023-07-16T02:16:55;24.80;97.80
14014;DHT22;49110;52.584;13.408;2023-07-16T02:17:56;24.70;97.80
14014;DHT22;49110;52.584;13.408;2023-07-16T02:18:56;24.80;98.10
14014;DHT22;49110;52.584;13.408;2023-07-16T02:19:57;24.70;98.10
14014;DHT22;49110;52.584;13.408;2023-07-16T02:20:57;24.70;98.00
14014;DHT22;49110;52.584;13.408;2023-07-16T02:21:58;24.70;98.20
14014;DHT22;49110;52.584;13.408;2023-07-16T02:22:58;24.80;98.20
14014;DHT22;49110;52.584;13.408;2023-07-16T02:23:59;24.70;98.00
14014;DHT22;49110;52.584;13.408;2023-07-16T02:24:59;24.80;97.90
14014;DHT22;49110;52.584;13.408;2023-07-16T02:26:01;24.70;97.90
14014;DHT22;49110;52.584;13.408;2023-07-16T02:27:01;24.70;98.10
14014;DHT22;49110;52.584;13.408;2023-07-16T02:28:02;24.70;98.20
14014;DHT22;49110;52.584;13.408;2023-07-16T02:29:02;24.70;98.50
14014;DHT22;49110;52.584;13.408;2023-07-16T02:30:03;24.60;98.60
14014;DHT22;49110;52.584;13.408;2023-07-16T02:31:05;24.60;98.80
14014;DHT22;49110;52.584;13.408;2023-07-16T02:32:05;24.60;99.50
14014;DHT22;49110;52.584;13.408;2023-07-16T02:33:06;24.60;99.50
14014;DHT22;49110;52.584;13.408;2023-07-16T02:34:06;24.60;99.80
14014;DHT22;49110;52.584;13.408;2023-07-16T02:35:07;24.50;99.90
14014;DHT22;49110;52.584;13.408;2023-07-16T02:36:08;24.50;99.90
14014;DHT22;49110;52.584;13.408;2023-07-16T02:37:08;24.40;99.90
14014;DHT22;49110;52.584;13.408;2023-07-16T02:38:09;24.40;99.90
14014;DHT22;49110;52.584;13.408;2023-07-16T02:39:09;24.30;99.90
14014;DHT22;49110;52.584;13.408;2023-07-16T02:40:10;24.30;99.90
14014;DHT22;49110;52.584;13.408;2023-07-16T02:41:10;24.30;99.90
14014;DHT22;49110;52.584;13.408;2023-07-16T02:42:11;24.20;99.90
14014;DHT22;49110;52.584;13.408;2023-07-16T02:43:11;24.10;99.90
14014;DHT22;49110;52.584;13.408;2023-07-16T02:44:12;24.10;99.90
14014;DHT22;49110;52.584;13.408;2023-07-16T02:45:12;24.10;99.90
14014;DHT22;49110;52.584;13.408;2023-07-16T02:46:13;24.10;99.90
14014;DHT22;49110;52.584;13.408;2023-07-16T02:47:13;24.10;99.90
14014;DHT22;49110;52.584;13.408;2023-07-16T02:48:14;24.00;99.90
14014;DHT22;49110;52.584;13.408;2023-07-16T02:49:14;24.00;99.90
14014;DHT22;49110;52.584;13.408;2023-07-16T02:50:15;24.00;99.90
14014;DHT22;49110;52.584;13.408;2023-07-16T02:51:15;23.90;99.90
14014;DHT22;49110;52.584;13.408;2023-07-16T02:52:15;23.90;99.90
14014;DHT22;49110;52.584;13.408;2023-07-16T02:53:16;23.90;99.90
14014;DHT22;49110;52.584;13.408;2023-07-16T02:54:16;23.90;99.90
14014;DHT22;49110;52.584;13.408;2023-07-16T02:55:17;23.80;99.90
14014;DHT22;49110;52.584;13.408;2023-07-16T02:56:17;23.80;99.90
14014;DHT22;49110;52.584;13.408;2023-07-16T02:57:18;23.80;99.90
14014;DHT22;49110;52.584;13.408;2023-07-16T02:58:18;23.80;99.90
14014;DHT22;49110;52.584;13.408;2023-07-16T02:59:19;23.80;99.90
14014;DHT22;49110;52.584;13.408;2023-07-16T03:00:19;23.80;99.90
14014;DHT22;49110;52.584;13.408;2023-07-16T03:01:20;23.80;99.90
14014;DHT22;49110;52.584;13.408;2023-07-16T03:02:20;23.90;99.90
14014;DHT22;49110;52.584;13.408;2023-07-16T03:03:20;23.90;99.90
14014;DHT22;49110;52.584;13.408;2023-07-16T03:04:21;23.80;99.90
14014;DHT22;49110;52.584;13.408;2023-07-16T03:05:21;23.80;99.90
14014;DHT22;49110;52.584;13.408;2023-07-16T03:06:22;23.80;99.90
14014;DHT22;49110;52.584;13.408;2023-07-16T03:07:22;23.80;99.90
14014;DHT22;49110;52.584;13.408;2023-07-16T03:08:23;23.90;99.90
14014;DHT22;49110;52.584;13.408;2023-07-16T03:09:26;23.80;99.90
14014;DHT22;49110;52.584;13.408;2023-07-16T03:10:27;23.80;99.90
14014;DHT22;49110;52.584;13.408;2023-07-16T03:11:27;23.80;99.90
14014;DHT22;49110;52.584;13.408;2023-07-16T03:12:28;23.70;99.90
14014;DHT22;49110;52.584;13.408;2023-07-16T03:13:28;23.60;99.90
14014;DHT22;49110;52.584;13.408;2023-07-16T03:14:29;23.50;99.90
14014;DHT22;49110;52.584;13.408;2023-07-16T03:15:29;23.40;99.90
14014;DHT22;49110;52.584;13.408;2023-07-16T03:16:30;23.40;99.90
14014;DHT22;49110;52.584;13.408;2023-07-16T03:17:30;23.30;99.90
14014;DHT22;49110;52.584;13.408;2023-07-16T03:18:31;23.30;99.90
14014;DHT22;49110;52.584;13.408;2023-07-16T03:19:32;23.30;99.90
14014;DHT22;49110;52.584;13.408;2023-07-16T03:20:33;23.20;99.90
14014;DHT22;49110;52.584;13.408;2023-07-16T03:21:33;23.10;99.90
14014;DHT22;49110;52.584;13.408;2023-07-16T03:22:34;23.00;99.90
14014;DHT22;49110;52.584;13.408;2023-07-16T03:23:34;23.00;99.90
14014;DHT22;49110;52.584;13.408;2023-07-16T03:24:35;23.00;99.90
14014;DHT22;49110;52.584;13.408;2023-07-16T03:25:35;23.10;99.90
14014;DHT22;49110;52.584;13.408;2023-07-16T03:26:36;23.20;99.90
14014;DHT22;49110;52.584;13.408;2023-07-16T03:27:36;23.30;99.90
14014;DHT22;49110;52.584;13.408;2023-07-16T03:28:37;23.30;99.90
14014;DHT22;49110;52.584;13.408;2023-07-16T03:29:37;23.40;99.90
14014;DHT22;49110;52.584;13.408;2023-07-16T03:30:38;23.40;99.90
14014;DHT22;49110;52.584;13.408;2023-07-16T03:31:38;23.30;99.90
14014;DHT22;49110;52.584;13.408;2023-07-16T03:32:39;23.10;99.90
14014;DHT22;49110;52.584;13.408;2023-07-16T03:33:39;23.00;99.90
14014;DHT22;49110;52.584;13.408;2023-07-16T03:34:39;23.00;99.90
14014;DHT22;49110;52.584;13.408;2023-07-16T03:35:43;23.10;99.90
14014;DHT22;49110;52.584;13.408;2023-07-16T03:36:44;23.20;99.90
14014;DHT22;49110;52.584;13.408;2023-07-16T03:37:44;23.30;99.90
14014;DHT22;49110;52.584;13.408;2023-07-16T03:38:45;23.40;99.90
14014;DHT22;49110;52.584;13.408;2023-07-16T03:39:45;23.40;99.90
14014;DHT22;49110;52.584;13.408;2023-07-16T03:40:48;23.40;99.90
14014;DHT22;49110;52.584;13.408;2023-07-16T03:41:48;23.50;99.90
14014;DHT22;49110;52.584;13.408;2023-07-16T03:42:49;23.50;99.90
14014;DHT22;49110;52.584;13.408;2023-07-16T03:43:49;23.50;99.90
14014;DHT22;49110;52.584;13.408;2023-07-16T03:44:50;23.50;99.90
14014;DHT22;49110;52.584;13.408;2023-07-16T03:45:50;23.50;99.90
14014;DHT22;49110;52.584;13.408;2023-07-16T03:46:50;23.40;99.90
14014;DHT22;49110;52.584;13.408;2023-07-16T03:47:51;23.40;99.90
14014;DHT22;49110;52.584;13.408;2023-07-16T03:48:53;23.20;99.90
14014;DHT22;49110;52.584;13.408;2023-07-16T03:49:54;23.10;99.90
14014;DHT22;49110;52.584;13.408;2023-07-16T03:50:54;23.20;99.90
14014;DHT22;49110;52.584;13.408;2023-07-16T03:51:54;23.20;99.90
14014;DHT22;49110;52.584;13.408;2023-07-16T03:52:55;23.30;99.90
14014;DHT22;49110;52.584;13.408;2023-07-16T03:53:56;23.40;99.90
14014;DHT22;49110;52.584;13.408;2023-07-16T03:54:56;23.40;99.90
14014;DHT22;49110;52.584;13.408;2023-07-16T03:55:57;23.40;99.90
14014;DHT22;49110;52.584;13.408;2023-07-16T03:56:57;23.40;99.90
14014;DHT22;49110;52.584;13.408;2023-07-16T03:57:58;23.50;99.90
14014;DHT22;49110;52.584;13.408;2023-07-16T03:58:58;23.50;99.90
14014;DHT22;49110;52.584;13.408;2023-07-16T03:59:59;23.60;99.90
14014;DHT22;49110;52.584;13.408;2023-07-16T04:00:59;23.50;99.90
14014;DHT22;49110;52.584;13.408;2023-07-16T04:01:59;23.50;99.90
14014;DHT22;49110;52.584;13.408;2023-07-16T04:03:00;23.60;99.90
14014;DHT22;49110;52.584;13.408;2023-07-16T04:04:00;23.60;99.90
14014;DHT22;49110;52.584;13.408;2023-07-16T04:05:01;23.60;99.90
14014;DHT22;49110;52.584;13.408;2023-07-16T04:06:06;23.50;99.90
14014;DHT22;49110;52.584;13.408;2023-07-16T04:07:07;23.60;99.90
14014;DHT22;49110;52.584;13.408;2023-07-16T04:08:07;23.60;99.90
14014;DHT22;49110;52.584;13.408;2023-07-16T04:09:08;23.60;99.90
14014;DHT22;49110;52.584;13.408;2023-07-16T04:10:09;23.60;99.90
14014;DHT22;49110;52.584;13.408;2023-07-16T04:11:09;23.60;99.90
14014;DHT22;49110;52.584;13.408;2023-07-16T04:12:10;23.60;99.90
14014;DHT22;49110;52.584;13.408;2023-07-16T04:13:10;23.60;99.90
14014;DHT22;49110;52.584;13.408;2023-07-16T04:14:11;23.40;99.90
14014;DHT22;49110;52.584;13.408;2023-07-16T04:15:11;23.40;99.90
14014;DHT22;49110;52.584;13.408;2023-07-16T04:16:11;23.40;99.90
14014;DHT22;49110;52.584;13.408;2023-07-16T04:17:12;23.40;99.90
14014;DHT22;49110;52.584;13.408;2023-07-16T04:18:13;23.40;99.90
14014;DHT22;49110;52.584;13.408;2023-07-16T04:19:13;23.40;99.90
14014;DHT22;49110;52.584;13.408;2023-07-16T04:20:13;23.40;99.90
14014;DHT22;49110;52.584;13.408;2023-07-16T04:21:14;23.40;99.90
14014;DHT22;49110;52.584;13.408;2023-07-16T04:22:14;23.40;99.90
14014;DHT22;49110;52.584;13.408;2023-07-16T04:23:15;23.30;99.90
14014;DHT22;49110;52.584;13.408;2023-07-16T04:24:15;23.30;99.90
14014;DHT22;49110;52.584;13.408;2023-07-16T04:25:16;23.30;99.90
14014;DHT22;49110;52.584;13.408;2023-07-16T04:26:16;23.40;99.90
14014;DHT22;49110;52.584;13.408;2023-07-16T04:27:17;23.40;99.90
14014;DHT22;49110;52.584;13.408;2023-07-16T04:28:17;23.50;99.90
14014;DHT22;49110;52.584;13.408;2023-07-16T04:29:18;23.50;99.90
14014;DHT22;49110;52.584;13.408;2023-07-16T04:30:18;23.50;99.90
14014;DHT22;49110;52.584;13.408;2023-07-16T04:31:19;23.60;99.90
14014;DHT22;49110;52.584;13.408;2023-07-16T04:32:19;23.50;99.90
14014;DHT22;49110;52.584;13.408;2023-07-16T04:33:20;23.60;99.90
14014;DHT22;49110;52.584;13.408;2023-07-16T04:34:20;23.60;99.90
14014;DHT22;49110;52.584;13.408;2023-07-16T04:35:21;23.60;99.90
14014;DHT22;49110;52.584;13.408;2023-07-16T04:36:21;23.70;99.90
14014;DHT22;49110;52.584;13.408;2023-07-16T04:37:22;23.60;99.90
14014;DHT22;49110;52.584;13.408;2023-07-16T04:38:22;23.60;99.90
14014;DHT22;49110;52.584;13.408;2023-07-16T04:39:23;23.70;99.90
14014;DHT22;49110;52.584;13.408;2023-07-16T04:40:23;23.70;99.90
14014;DHT22;49110;52.584;13.408;2023-07-16T04:41:23;23.70;99.90
14014;DHT22;49110;52.584;13.408;2023-07-16T04:42:24;23.60;99.90
14014;DHT22;49110;52.584;13.408;2023-07-16T04:43:24;23.60;99.90
14014;DHT22;49110;52.584;13.408;2023-07-16T04:44:25;23.60;99.90
14014;DHT22;49110;52.584;13.408;2023-07-16T04:45:25;23.70;99.90
14014;DHT22;49110;52.584;13.408;2023-07-16T04:46:26;23.60;99.90
14014;DHT22;49110;52.584;13.408;2023-07-16T04:47:26;23.50;99.90
14014;DHT22;49110;52.584;13.408;2023-07-16T04:48:27;23.60;99.90
14014;DHT22;49110;52.584;13.408;2023-07-16T04:49:27;23.50;99.90
14014;DHT22;49110;52.584;13.408;2023-07-16T04:50:28;23.40;99.90
14014;DHT22;49110;52.584;13.408;2023-07-16T04:51:28;23.50;99.90
14014;DHT22;49110;52.584;13.408;2023-07-16T04:52:29;23.50;99.90
14014;DHT22;49110;52.584;13.408;2023-07-16T04:53:29;23.40;99.90
14014;DHT22;49110;52.584;13.408;2023-07-16T04:54:35;23.40;99.90
14014;DHT22;49110;52.584;13.408;2023-07-16T04:55:37;23.30;99.90
14014;DHT22;49110;52.584;13.408;2023-07-16T04:56:37;23.30;99.90
14014;DHT22;49110;52.584;13.408;2023-07-16T04:57:38;23.30;99.90
14014;DHT22;49110;52.584;13.408;2023-07-16T04:58:38;23.30;99.90
14014;DHT22;49110;52.584;13.408;2023-07-16T04:59:39;23.30;99.90
14014;DHT22;49110;52.584;13.408;2023-07-16T05:00:39;23.40;99.90
14014;DHT22;49110;52.584;13.408;2023-07-16T05:01:40;23.40;99.90
14014;DHT22;49110;52.584;13.408;2023-07-16T05:02:40;23.40;99.90
14014;DHT22;49110;52.584;13.408;2023-07-16T05:03:41;23.40;99.90
14014;DHT22;49110;52.584;13.408;2023-07-16T05:04:42;23.40;99.90
14014;DHT22;49110;52.584;13.408;2023-07-16T05:05:44;23.40;99.90
14014;DHT22;49110;52.584;13.408;2023-07-16T05:06:44;23.40;99.90
14014;DHT22;49110;52.584;13.408;2023-07-16T05:07:45;23.40;99.90
14014;DHT22;49110;52.584;13.408;2023-07-16T05:08:45;23.40;99.90
14014;DHT22;49110;52.584;13.408;2023-07-16T05:09:46;23.40;99.90
14014;DHT22;49110;52.584;13.408;2023-07-16T05:10:46;23.40;99.90
14014;DHT22;49110;52.584;13.408;2023-07-16T05:11:47;23.40;99.90
14014;DHT22;49110;52.584;13.408;2023-07-16T05:12:47;23.40;99.90
14014;DHT22;49110;52.584;13.408;2023-07-16T05:13:48;23.40;99.90
14014;DHT22;49110;52.584;13.408;2023-07-16T05:14:48;23.50;99.90
14014;DHT22;49110;52.584;13.408;2023-07-16T05:15:49;23.50;99.90
14014;DHT22;49110;52.584;13.408;2023-07-16T05:16:49;23.50;99.90
14014;DHT22;49110;52.584;13.408;2023-07-16T05:17:50;23.60;99.90
14014;DHT22;49110;52.584;13.408;2023-07-16T05:18:50;23.50;99.90
14014;DHT22;49110;52.584;13.408;2023-07-16T05:19:51;23.60;99.90
14014;DHT22;49110;52.584;13.408;2023-07-16T05:20:51;23.60;99.90
14014;DHT22;49110;52.584;13.408;2023-07-16T05:21:52;23.60;99.90
14014;DHT22;49110;52.584;13.408;2023-07-16T05:22:52;23.60;99.90
14014;DHT22;49110;52.584;13.408;2023-07-16T05:23:53;23.60;99.90
14014;DHT22;49110;52.584;13.408;2023-07-16T05:24:53;23.60;99.90
14014;DHT22;49110;52.584;13.408;2023-07-16T05:25:53;23.70;99.90
14014;DHT22;49110;52.584;13.408;2023-07-16T05:26:54;23.80;99.90
14014;DHT22;49110;52.584;13.408;2023-07-16T05:27:55;23.80;99.90
14014;DHT22;49110;52.584;13.408;2023-07-16T05:28:56;23.90;99.90
14014;DHT22;49110;52.584;13.408;2023-07-16T05:29:56;23.90;99.90
14014;DHT22;49110;52.584;13.408;2023-07-16T05:31:01;23.90;99.90
14014;DHT22;49110;52.584;13.408;2023-07-16T05:32:01;24.00;99.90
14014;DHT22;49110;52.584;13.408;2023-07-16T05:33:02;24.00;99.90
14014;DHT22;49110;52.584;13.408;2023-07-16T05:34:03;24.00;99.90
14014;DHT22;49110;52.584;13.408;2023-07-16T05:35:04;24.10;99.90
14014;DHT22;49110;52.584;13.408;2023-07-16T05:36:04;24.10;99.90
14014;DHT22;49110;52.584;13.408;2023-07-16T05:37:05;24.10;99.90
14014;DHT22;49110;52.584;13.408;2023-07-16T05:38:05;24.10;99.90
14014;DHT22;49110;52.584;13.408;2023-07-16T05:39:06;24.10;99.90
14014;DHT22;49110;52.584;13.408;2023-07-16T05:40:08;24.10;99.90
14014;DHT22;49110;52.584;13.408;2023-07-16T05:41:09;24.10;99.90
14014;DHT22;49110;52.584;13.408;2023-07-16T05:42:09;24.00;99.90
14014;DHT22;49110;52.584;13.408;2023-07-16T05:43:10;24.00;99.90
14014;DHT22;49110;52.584;13.408;2023-07-16T05:44:11;23.90;99.90
14014;DHT22;49110;52.584;13.408;2023-07-16T05:45:11;23.90;99.90
14014;DHT22;49110;52.584;13.408;2023-07-16T05:46:12;23.90;99.90
14014;DHT22;49110;52.584;13.408;2023-07-16T05:47:12;23.90;99.90
14014;DHT22;49110;52.584;13.408;2023-07-16T05:48:13;23.90;99.90
14014;DHT22;49110;52.584;13.408;2023-07-16T05:49:13;23.90;99.90
14014;DHT22;49110;52.584;13.408;2023-07-16T05:50:14;23.90;99.90
14014;DHT22;49110;52.584;13.408;2023-07-16T05:51:14;23.90;99.90
14014;DHT22;49110;52.584;13.408;2023-07-16T05:52:14;23.80;99.90
14014;DHT22;49110;52.584;13.408;2023-07-16T05:53:15;23.80;99.90
14014;DHT22;49110;52.584;13.408;2023-07-16T05:54:15;23.80;99.90
14014;DHT22;49110;52.584;13.408;2023-07-16T05:55:17;23.80;99.90
14014;DHT22;49110;52.584;13.408;2023-07-16T05:56:17;23.70;99.90
14014;DHT22;49110;52.584;13.408;2023-07-16T05:57:18;23.70;99.90
14014;DHT22;49110;52.584;13.408;2023-07-16T05:58:18;23.70;99.90
14014;DHT22;49110;52.584;13.408;2023-07-16T05:59:19;23.80;99.90
14014;DHT22;49110;52.584;13.408;2023-07-16T06:00:19;23.80;99.90
14014;DHT22;49110;52.584;13.408;2023-07-16T06:01:20;23.80;99.90
14014;DHT22;49110;52.584;13.408;2023-07-16T06:02:20;23.70;99.90
14014;DHT22;49110;52.584;13.408;2023-07-16T06:03:20;23.70;99.90
14014;DHT22;49110;52.584;13.408;2023-07-16T06:04:21;23.80;99.90
14014;DHT22;49110;52.584;13.408;2023-07-16T06:05:22;23.90;99.90
14014;DHT22;49110;52.584;13.408;2023-07-16T06:06:22;23.90;99.90
14014;DHT22;49110;52.584;13.408;2023-07-16T06:07:23;23.90;99.90
14014;DHT22;49110;52.584;13.408;2023-07-16T06:08:23;23.90;99.90
14014;DHT22;49110;52.584;13.408;2023-07-16T06:09:25;23.90;99.90
14014;DHT22;49110;52.584;13.408;2023-07-16T06:10:25;23.90;99.90
14014;DHT22;49110;52.584;13.408;2023-07-16T06:11:25;23.90;99.90
14014;DHT22;49110;52.584;13.408;2023-07-16T06:12:26;23.90;99.90
14014;DHT22;49110;52.584;13.408;2023-07-16T06:13:27;23.90;99.90
14014;DHT22;49110;52.584;13.408;2023-07-16T06:14:27;24.00;99.90
14014;DHT22;49110;52.584;13.408;2023-07-16T06:15:27;23.90;99.90
14014;DHT22;49110;52.584;13.408;2023-07-16T06:16:28;24.00;99.90
14014;DHT22;49110;52.584;13.408;2023-07-16T06:17:28;24.00;99.90
14014;DHT22;49110;52.584;13.408;2023-07-16T06:18:29;24.00;99.90
14014;DHT22;49110;52.584;13.408;2023-07-16T06:19:29;24.00;99.90
14014;DHT22;49110;52.584;13.408;2023-07-16T06:20:30;24.00;99.90
14014;DHT22;49110;52.584;13.408;2023-07-16T06:21:30;24.00;99.90
14014;DHT22;49110;52.584;13.408;2023-07-16T06:22:31;23.90;99.90
14014;DHT22;49110;52.584;13.408;2023-07-16T06:23:31;24.00;99.90
14014;DHT22;49110;52.584;13.408;2023-07-16T06:24:31;24.00;99.90